Rosendale, New York
Current Conditions -  °F | °C
As of 10:53 AM on Saturday 25 Oct 2014 (Local Time) from KPOU Reporting Station
Clear Clear  
Wind Chill: 55°   Ceiling: Unl
Heat Index: 55°   Visibility: 10mi
Dew Point: 42°   Wind: 6mph
Humidity: 62%   Direction: 240°WSW
Pressure: 29.81"   Gusts: NA
Location:  41.84°N, 74.08°W
Report Text: KPOU 251453Z 24005KT 10SM CLR 13/06 A2981 RMK AO2 SLP092 T01280056 58016
Loading
Personal Weather Stations






























Interactive Weather Map
Tropical Storm Tracking
New forecast layout! Learn more

10-Day Weather Forecast

Advertisements
Track Severe Weather on mobile